Terminal Aerodrome Forecast
Issued by NWS

Home | Current Version | Previous Version | Text Only | Print | Product List | Glossary On
Versions: 1 2 3 4 5 6 7 8 9 10 11 12 13 14
000
FTAK31 PANC 270523
TAFAHO
TAF
PAHO 270523Z 2706/2806 17006KT P6SM SCT050
     FM270900 17006KT P6SM VCSH BKN045
     FM271800 18012G18KT P6SM -RA BKN025
     FM272200 24012KT 5SM -SHRASN SCT012 BKN020
     FM280000 25009KT P6SM SCT045=

USA.gov is the U.S. government's official web portal to all federal, state and local government web resources and services.